createdAt,value
2024-04-11T00:01:06.270Z,101814.50
2024-04-11T00:06:05.354Z,101817.03
2024-04-11T00:11:04.245Z,101821.94
2024-04-11T00:16:05.494Z,101823.47
2024-04-11T00:21:04.498Z,101819.16
2024-04-11T00:26:05.154Z,101827.75
2024-04-11T00:31:06.238Z,101836.34
2024-04-11T00:36:06.061Z,101831.34
2024-04-11T00:41:05.032Z,101835.13
2024-04-11T00:46:06.905Z,101840.63
2024-04-11T00:51:06.991Z,101851.38
2024-04-11T00:56:06.989Z,101844.47
2024-04-11T01:01:08.085Z,101847.56
2024-04-11T01:06:08.030Z,101866.34
2024-04-11T01:11:07.064Z,101866.47
2024-04-11T01:16:09.498Z,101863.78
2024-04-11T01:21:08.409Z,101859.44
2024-04-11T01:26:09.569Z,101860.97
2024-04-11T01:31:08.642Z,101859.28
2024-04-11T01:36:09.458Z,101862.41
2024-04-11T01:41:12.070Z,101866.94
2024-04-11T01:46:13.445Z,101875.34
2024-04-11T01:51:12.827Z,101878.75
2024-04-11T01:56:13.902Z,101869.31
2024-04-11T02:01:14.043Z,101879.28
2024-04-11T02:06:14.116Z,101881.94
2024-04-11T02:11:15.401Z,101890.09
2024-04-11T02:16:14.525Z,101891.69
2024-04-11T02:21:13.579Z,101889.47
2024-04-11T02:26:14.964Z,101891.03
2024-04-11T02:31:14.032Z,101892.97
2024-04-11T02:36:13.018Z,101907.38
2024-04-11T02:41:11.888Z,101903.31
2024-04-11T02:46:16.078Z,101907.69
2024-04-11T02:51:15.232Z,101901.34
2024-04-11T02:56:14.518Z,101901.19
2024-04-11T03:01:16.253Z,101900.59
2024-04-11T03:06:17.892Z,101903.03
2024-04-11T03:11:16.720Z,101912.13
2024-04-11T03:16:19.316Z,101914.47
2024-04-11T03:21:18.180Z,101907.56
2024-04-11T03:26:17.066Z,101925.81
2024-04-11T03:31:19.709Z,101927.44
2024-04-11T03:36:20.286Z,101919.81
2024-04-11T03:41:19.549Z,101933.66
2024-04-11T03:46:22.404Z,101939.53
2024-04-11T03:51:22.984Z,101946.69
2024-04-11T03:56:23.817Z,101954.50
2024-04-11T04:01:26.877Z,101955.38
2024-04-11T04:06:25.772Z,101966.00
2024-04-11T04:11:25.013Z,101966.00
2024-04-11T04:16:27.441Z,101972.94
2024-04-11T04:21:27.020Z,101984.31
2024-04-11T04:26:31.334Z,101990.06
2024-04-11T04:31:33.400Z,101991.47
2024-04-11T04:36:34.474Z,102004.00
2024-04-11T04:41:33.472Z,102004.22
2024-04-11T04:46:35.365Z,102007.44
2024-04-11T04:51:34.338Z,102024.59
2024-04-11T04:56:34.945Z,102025.84
2024-04-11T05:01:36.147Z,102028.06
2024-04-11T05:06:35.470Z,102033.75
2024-04-11T05:11:34.879Z,102042.81
2024-04-11T05:16:36.248Z,102055.69
2024-04-11T05:21:40.306Z,102067.91
2024-04-11T05:26:39.437Z,102072.88
2024-04-11T05:31:40.573Z,102070.69
2024-04-11T05:36:40.598Z,102080.06
2024-04-11T05:41:43.032Z,102083.31
2024-04-11T05:46:46.319Z,102100.03
2024-04-11T05:51:45.314Z,102106.34
2024-04-11T05:56:44.216Z,102115.69
2024-04-11T06:01:45.395Z,102117.59
2024-04-11T06:06:44.848Z,102128.84
2024-04-11T06:11:43.702Z,102139.28
2024-04-11T06:16:44.955Z,102146.28
2024-04-11T06:21:48.054Z,102154.97
2024-04-11T06:26:47.094Z,102155.56
2024-04-11T06:31:48.256Z,102164.78
2024-04-11T06:36:50.428Z,102168.38
2024-04-11T06:41:50.437Z,102169.25
2024-04-11T06:46:52.584Z,102172.22
2024-04-11T06:51:52.263Z,102171.19
2024-04-11T06:56:53.705Z,102174.56
2024-04-11T07:01:59.141Z,102183.31
2024-04-11T07:07:00.996Z,102178.19
2024-04-11T07:11:59.831Z,102176.84
2024-04-11T07:17:02.575Z,102186.25
2024-04-11T07:22:02.328Z,102191.66
2024-04-11T07:27:01.414Z,102194.50
2024-04-11T07:32:02.620Z,102189.47
2024-04-11T07:37:01.727Z,102200.97
2024-04-11T07:42:19.343Z,102198.34
2024-04-11T07:47:28.183Z,102207.94
2024-04-11T07:52:38.591Z,102195.75
2024-04-11T07:57:39.311Z,102215.44
2024-04-11T08:02:42.336Z,102204.75
2024-04-11T08:07:43.518Z,102206.56
2024-04-11T08:12:43.032Z,102214.97
2024-04-11T08:17:44.481Z,102225.69
2024-04-11T08:22:44.302Z,102217.53
2024-04-11T08:27:43.433Z,102226.44
2024-04-11T08:32:46.527Z,102225.81
2024-04-11T08:37:45.651Z,102222.69
2024-04-11T08:42:45.827Z,102226.81
2024-04-11T08:47:47.968Z,102233.56
2024-04-11T08:52:48.153Z,102229.78
2024-04-11T08:57:51.595Z,102226.78
2024-04-11T09:02:53.211Z,102214.47
2024-04-11T09:07:52.347Z,102214.63
2024-04-11T09:12:53.153Z,102215.59
2024-04-11T09:17:57.434Z,102211.28
2024-04-11T09:23:00.628Z,102203.09
2024-04-11T09:28:02.648Z,102207.13
2024-04-11T09:33:08.973Z,102217.69
2024-04-11T09:38:11.238Z,102217.72
2024-04-11T09:43:16.412Z,102217.56
2024-04-11T09:48:19.526Z,102218.81
2024-04-11T09:53:27.006Z,102220.34
2024-04-11T09:58:29.177Z,102224.44
2024-04-11T10:03:30.296Z,102219.19
2024-04-11T10:08:35.332Z,102221.69
2024-04-11T10:13:39.862Z,102226.78
2024-04-11T10:18:47.057Z,102227.88
2024-04-11T10:23:49.552Z,102219.81
2024-04-11T10:28:52.198Z,102202.06
2024-04-11T10:33:59.935Z,102206.72
2024-04-11T10:38:59.454Z,102201.97
2024-04-11T10:44:00.649Z,102202.75
2024-04-11T10:49:13.085Z,102189.47
2024-04-11T10:54:12.237Z,102187.53
2024-04-11T10:59:18.696Z,102178.75
2024-04-11T11:04:21.259Z,102173.06
2024-04-11T11:09:20.827Z,102185.75
2024-04-11T11:14:21.109Z,102174.00
2024-04-11T11:19:35.868Z,102168.34
2024-04-11T11:24:59.418Z,102161.66
2024-04-11T11:35:28.110Z,102152.84
2024-04-11T11:40:54.204Z,102139.28
2024-04-11T11:46:18.175Z,102137.03
2024-04-11T11:57:49.384Z,102121.25
2024-04-11T12:03:05.233Z,102111.31
2024-04-11T12:08:55.882Z,102102.72
2024-04-11T12:14:03.511Z,102099.28
2024-04-11T12:19:03.994Z,102093.16
2024-04-11T12:24:03.328Z,102092.09
2024-04-11T12:29:04.649Z,102088.75
2024-04-11T12:34:05.642Z,102086.56
2024-04-11T12:39:13.187Z,102072.81
2024-04-11T12:44:14.438Z,102072.47
2024-04-11T12:49:16.691Z,102065.81
2024-04-11T12:54:32.076Z,102068.69
2024-04-11T12:59:34.514Z,102069.09
2024-04-11T13:04:35.010Z,102058.22
2024-04-11T13:09:49.759Z,102061.72
2024-04-11T13:14:58.397Z,102058.09
2024-04-11T13:19:57.943Z,102059.69
2024-04-11T13:25:11.344Z,102048.94
2024-04-11T13:30:15.890Z,102057.97
2024-04-11T13:35:15.164Z,102056.97
2024-04-11T13:40:44.986Z,102050.53
2024-04-11T13:45:56.767Z,102055.06
2024-04-11T13:50:55.926Z,102042.59
2024-04-11T13:55:56.741Z,102049.66
2024-04-11T14:01:03.095Z,102048.50
2024-04-11T14:06:27.969Z,102042.97
2024-04-11T14:11:30.644Z,102047.94
2024-04-11T14:16:52.410Z,102044.25
2024-04-11T14:21:54.165Z,102035.16
2024-04-11T14:26:59.580Z,102024.50
2024-04-11T14:32:00.938Z,102020.72
2024-04-11T14:37:42.954Z,102021.22
2024-04-11T14:47:48.951Z,102020.88
2024-04-11T14:52:48.563Z,102022.50
2024-04-11T14:57:47.389Z,102022.19
2024-04-11T15:02:51.589Z,102020.19
2024-04-11T15:07:50.534Z,102012.25
2024-04-11T15:12:50.184Z,102016.72
2024-04-11T15:18:00.205Z,102016.78
2024-04-11T15:22:59.189Z,102009.81
2024-04-11T15:27:58.818Z,102010.84
2024-04-11T15:33:05.563Z,102005.47
2024-04-11T15:38:20.201Z,102008.59
2024-04-11T15:43:27.749Z,102009.16
2024-04-11T15:48:36.776Z,102005.16
2024-04-11T15:53:37.558Z,102011.72
2024-04-11T15:58:38.436Z,102004.88
2024-04-11T16:03:40.981Z,102004.19
2024-04-11T16:08:43.283Z,102003.19
2024-04-11T16:13:43.445Z,102008.47
2024-04-11T16:18:46.973Z,102006.47
2024-04-11T16:23:58.002Z,102008.47
2024-04-11T16:28:58.078Z,102007.25
2024-04-11T16:34:02.086Z,102012.03
2024-04-11T16:39:21.014Z,102020.59
2024-04-11T16:44:24.705Z,102011.06
2024-04-11T16:49:36.020Z,102016.13
2024-04-11T16:54:41.117Z,102014.09
2024-04-11T16:59:42.414Z,102015.78
2024-04-11T17:04:47.719Z,102021.38
2024-04-11T17:09:47.253Z,102023.09
2024-04-11T17:14:53.671Z,102034.41
2024-04-11T17:20:08.991Z,102040.25
2024-04-11T17:25:13.071Z,102047.03
2024-04-11T17:30:24.816Z,102054.56
2024-04-11T17:35:45.771Z,102057.81
2024-04-11T17:40:44.719Z,102049.63
2024-04-11T17:45:44.548Z,102050.41
2024-04-11T17:50:45.540Z,102054.56
2024-04-11T17:55:54.079Z,102065.53
2024-04-11T18:00:53.174Z,102082.13
2024-04-11T18:05:57.126Z,102066.84
2024-04-11T18:10:58.996Z,102080.34
2024-04-11T18:16:11.250Z,102085.19
2024-04-11T18:21:14.583Z,102091.84
2024-04-11T18:26:15.945Z,102089.31
2024-04-11T18:31:17.576Z,102098.94
2024-04-11T18:36:25.844Z,102096.47
2024-04-11T18:41:46.636Z,102103.22
2024-04-11T18:46:56.106Z,102101.16
2024-04-11T18:51:59.738Z,102107.94
2024-04-11T18:57:01.848Z,102111.28
2024-04-11T19:02:01.868Z,102110.09
2024-04-11T19:07:08.115Z,102111.38
2024-04-11T19:12:11.855Z,102114.22
2024-04-11T19:17:18.145Z,102112.88
2024-04-11T19:22:19.372Z,102116.59
2024-04-11T19:27:21.977Z,102116.75
2024-04-11T19:32:21.385Z,102118.81
2024-04-11T19:37:23.689Z,102120.56
2024-04-11T19:42:30.319Z,102128.13
2024-04-11T19:47:31.904Z,102134.19
2024-04-11T19:52:33.812Z,102135.22
2024-04-11T19:57:33.505Z,102131.13
2024-04-11T20:02:36.341Z,102127.28
2024-04-11T20:07:41.456Z,102127.28
2024-04-11T20:12:42.217Z,102133.56
2024-04-11T20:17:41.339Z,102129.38
2024-04-11T20:22:42.527Z,102127.25
2024-04-11T20:27:42.549Z,102136.00
2024-04-11T20:32:45.040Z,102135.75
2024-04-11T20:37:49.117Z,102136.53
2024-04-11T20:43:02.428Z,102147.19
2024-04-11T20:48:14.330Z,102142.69
2024-04-11T20:53:31.865Z,102146.22
2024-04-11T20:58:47.290Z,102160.03
2024-04-11T21:04:02.883Z,102163.88
2024-04-11T21:09:20.372Z,102157.06
2024-04-11T21:14:35.757Z,102172.00
2024-04-11T21:19:51.023Z,102181.66
2024-04-11T21:25:12.203Z,102175.34
2024-04-11T21:30:27.418Z,102175.63
2024-04-11T21:35:29.849Z,102175.72
2024-04-11T21:40:32.452Z,102185.00
2024-04-11T21:45:31.308Z,102184.69
2024-04-11T21:50:37.048Z,102186.13
2024-04-11T21:55:39.181Z,102190.63
2024-04-11T22:00:51.235Z,102191.38
2024-04-11T22:05:51.117Z,102181.63
2024-04-11T22:10:53.945Z,102185.34
2024-04-11T22:15:53.831Z,102198.44
2024-04-11T22:21:06.188Z,102198.75
2024-04-11T22:26:07.987Z,102198.94
2024-04-11T22:31:10.887Z,102197.41
2024-04-11T22:36:17.634Z,102199.31
2024-04-11T22:41:18.581Z,102195.75
2024-04-11T22:46:17.572Z,102190.63
2024-04-11T22:51:24.375Z,102189.34
2024-04-11T22:56:34.419Z,102191.31
2024-04-11T23:01:36.729Z,102185.66
2024-04-11T23:06:35.544Z,102184.69
2024-04-11T23:11:36.920Z,102187.03
2024-04-11T23:16:37.223Z,102184.34
2024-04-11T23:21:36.059Z,102186.13
2024-04-11T23:26:39.559Z,102186.47
2024-04-11T23:31:40.847Z,102186.19
2024-04-11T23:36:43.132Z,102186.75
2024-04-11T23:41:50.373Z,102189.25
2024-04-11T23:46:49.209Z,102193.53
2024-04-11T23:51:50.973Z,102197.09
2024-04-11T23:56:59.490Z,102197.59
